Time;durP1;ratioP1;P1;durP2;ratioP2;P2;SDS_P1;SDS_P2;PMS_P1;PMS_P2;Temp;Humidity;BMP_temperature;BMP_pressure;BME280_temperature;BME280_humidity;BME280_pressure;Samples;Min_cycle;Max_cycle;Signal;HPM_P1;HPM_P2
2022/08/09 00:01:47;;;;;;;8.75;3.75;;;14.60;99.90;;;;;;4998319;28;212353;-65
2022/08/09 00:04:20;;;;;;;7.70;3.60;;;14.50;99.90;;;;;;5022919;28;186125;-63
2022/08/09 00:06:47;;;;;;;8.20;3.40;;;14.40;99.90;;;;;;5020427;28;207602;-64
2022/08/09 00:09:15;;;;;;;8.35;3.30;;;14.40;99.90;;;;;;5041541;28;35619;-65
2022/08/09 00:11:42;;;;;;;7.13;3.10;;;14.40;99.90;;;;;;5008164;28;206077;-65
2022/08/09 00:14:08;;;;;;;8.50;3.00;;;14.40;99.90;;;;;;5040699;28;68011;-65
2022/08/09 00:16:34;;;;;;;7.40;2.83;;;14.40;99.90;;;;;;5003479;28;209942;-65
2022/08/09 00:19:01;;;;;;;6.55;2.50;;;14.30;99.90;;;;;;5036513;28;188350;-65
2022/08/09 00:21:27;;;;;;;8.07;2.70;;;14.30;99.90;;;;;;5008112;28;199875;-65
2022/08/09 00:23:54;;;;;;;7.20;2.72;;;14.30;99.90;;;;;;5039328;28;49678;-65
2022/08/09 00:26:21;;;;;;;8.02;3.03;;;14.20;99.90;;;;;;5037146;28;38421;-65
2022/08/09 00:28:47;;;;;;;7.35;2.58;;;14.20;99.90;;;;;;5039949;28;91038;-65
2022/08/09 00:31:13;;;;;;;7.55;2.70;;;14.20;99.90;;;;;;4987380;28;209053;-64
2022/08/09 00:33:40;;;;;;;7.32;2.75;;;14.20;99.90;;;;;;5049751;28;268793;-65
2022/08/09 00:36:06;;;;;;;8.00;3.22;;;14.20;99.90;;;;;;5008666;28;206256;-65
2022/08/09 00:38:32;;;;;;;8.00;3.00;;;14.10;99.90;;;;;;5031876;28;268867;-65
2022/08/09 00:40:58;;;;;;;7.57;3.40;;;14.10;99.90;;;;;;5003290;28;213196;-64
2022/08/09 00:43:25;;;;;;;7.55;3.08;;;14.00;99.90;;;;;;5034514;28;258842;-64
2022/08/09 00:45:51;;;;;;;7.93;3.20;;;14.00;99.90;;;;;;5007611;28;210854;-64
2022/08/09 00:48:17;;;;;;;8.57;3.30;;;14.00;99.90;;;;;;5055956;28;273748;-64
2022/08/09 00:50:43;;;;;;;8.45;3.55;;;14.00;99.90;;;;;;5008234;28;209352;-65
2022/08/09 00:53:09;;;;;;;8.40;3.65;;;13.90;99.90;;;;;;5036317;28;20413;-65
2022/08/09 00:55:35;;;;;;;8.50;3.80;;;14.00;99.90;;;;;;5029891;28;216524;-65
2022/08/09 00:58:02;;;;;;;8.93;3.42;;;13.90;99.90;;;;;;5044425;28;98704;-63
2022/08/09 01:00:28;;;;;;;8.48;3.38;;;13.90;99.90;;;;;;5040507;28;130000;-64
2022/08/09 01:02:54;;;;;;;8.73;3.72;;;13.90;99.90;;;;;;5004694;28;209439;-64
2022/08/09 01:05:20;;;;;;;8.05;3.20;;;13.80;99.90;;;;;;5028133;28;128274;-64
2022/08/09 01:08:03;;;;;;;8.07;3.42;;;13.90;99.90;;;;;;5028604;28;206696;-64
2022/08/09 01:11:07;;;;;;;7.53;3.20;;;13.80;99.90;;;;;;5044341;28;20055;-64
2022/08/09 01:13:40;;;;;;;7.63;3.40;;;13.80;99.90;;;;;;4981453;28;266546;-64
2022/08/09 01:16:10;;;;;;;8.32;3.40;;;13.70;99.90;;;;;;5010635;28;209809;-64
2022/08/09 01:18:38;;;;;;;8.75;3.30;;;13.70;99.90;;;;;;5036633;28;263495;-65
2022/08/09 01:21:04;;;;;;;8.57;3.70;;;13.70;99.90;;;;;;4994379;28;206890;-64
2022/08/09 01:23:39;;;;;;;8.70;4.10;;;13.70;99.90;;;;;;5034279;28;269702;-64
2022/08/09 01:26:31;;;;;;;9.57;4.18;;;13.60;99.90;;;;;;5014805;28;182240;-65
2022/08/09 01:29:00;;;;;;;12.07;3.92;;;13.60;99.90;;;;;;5056105;28;78220;-65
2022/08/09 01:31:29;;;;;;;8.45;4.13;;;13.60;99.90;;;;;;5027157;28;209217;-64
2022/08/09 01:33:59;;;;;;;7.60;3.55;;;13.60;99.90;;;;;;5059592;28;70087;-64
2022/08/09 01:36:27;;;;;;;7.80;3.50;;;13.60;99.90;;;;;;5012391;28;209589;-65
2022/08/09 01:38:55;;;;;;;7.80;3.10;;;13.50;99.90;;;;;;5041798;28;98398;-63
2022/08/09 01:41:30;;;;;;;8.18;3.45;;;13.50;99.90;;;;;;5012248;28;207527;-64
2022/08/09 01:44:02;;;;;;;7.32;2.92;;;13.50;99.90;;;;;;5064481;28;251192;-65
2022/08/09 01:46:35;;;;;;;7.55;2.80;;;13.40;99.90;;;;;;5010559;28;206571;-65
2022/08/09 01:49:04;;;;;;;7.55;3.00;;;13.40;99.90;;;;;;5038329;28;199123;-65
2022/08/09 01:51:31;;;;;;;8.27;2.72;;;13.40;99.90;;;;;;5022721;28;206538;-65
2022/08/09 01:54:00;;;;;;;7.80;2.90;;;13.40;99.90;;;;;;5037677;28;208098;-65
2022/08/09 01:56:29;;;;;;;7.10;2.88;;;13.30;99.90;;;;;;5012427;28;206837;-65
2022/08/09 01:58:57;;;;;;;7.85;3.25;;;13.30;99.90;;;;;;5039503;28;157497;-65
2022/08/09 02:01:26;;;;;;;8.13;3.20;;;13.30;99.90;;;;;;5007657;28;217004;-65
2022/08/09 02:03:55;;;;;;;7.30;2.83;;;13.30;99.90;;;;;;5038893;28;225212;-65
2022/08/09 02:09:12;;;;;;;9.35;3.35;;;13.20;99.90;;;;;;5060409;28;23010;-64
2022/08/09 02:11:38;;;;;;;8.80;3.67;;;13.20;99.90;;;;;;5007716;28;204206;-64
2022/08/09 02:14:06;;;;;;;9.18;3.58;;;13.20;99.90;;;;;;5021189;28;89023;-65
2022/08/09 02:16:35;;;;;;;8.73;4.10;;;13.10;99.90;;;;;;5028415;28;209636;-63
2022/08/09 02:19:03;;;;;;;8.32;3.85;;;13.20;99.90;;;;;;5063630;28;259591;-64
2022/08/09 02:21:34;;;;;;;8.10;3.90;;;13.10;99.90;;;;;;4999382;28;207614;-66
2022/08/09 02:24:04;;;;;;;9.10;3.97;;;13.10;99.90;;;;;;5031154;28;164587;-64
2022/08/09 02:26:33;;;;;;;10.48;4.32;;;13.10;99.90;;;;;;5011584;28;194870;-64
2022/08/09 02:29:05;;;;;;;10.35;4.45;;;13.10;99.90;;;;;;5024331;28;20048;-64
2022/08/09 02:31:36;;;;;;;10.27;4.68;;;13.00;99.90;;;;;;5003409;28;210017;-64
2022/08/09 02:34:11;;;;;;;9.07;4.53;;;13.00;99.90;;;;;;5042351;28;47815;-64
2022/08/09 02:36:41;;;;;;;10.98;4.85;;;13.00;99.90;;;;;;5007480;28;206216;-64
2022/08/09 02:39:14;;;;;;;8.93;4.50;;;13.00;99.90;;;;;;5024125;28;20445;-64
2022/08/09 02:41:44;;;;;;;8.90;4.80;;;13.00;99.90;;;;;;4997430;28;206412;-64
2022/08/09 02:44:15;;;;;;;10.45;4.45;;;13.00;99.90;;;;;;5038783;28;147065;-65
2022/08/09 02:46:43;;;;;;;8.80;4.50;;;13.00;99.90;;;;;;5023722;28;206789;-65
2022/08/09 02:49:13;;;;;;;10.07;4.82;;;13.00;99.90;;;;;;5033101;28;230526;-64
2022/08/09 02:51:41;;;;;;;9.80;4.88;;;13.00;99.90;;;;;;4985412;28;162491;-64
2022/08/09 02:54:12;;;;;;;10.13;4.93;;;12.90;99.90;;;;;;5039302;28;144859;-64
2022/08/09 02:56:41;;;;;;;11.38;4.65;;;12.90;99.90;;;;;;5026127;28;208230;-64
2022/08/09 02:59:09;;;;;;;11.95;5.90;;;12.90;99.90;;;;;;5042395;28;53285;-64
2022/08/09 03:01:38;;;;;;;10.82;6.15;;;12.90;99.90;;;;;;5005250;28;206113;-65
2022/08/09 03:04:06;;;;;;;11.55;6.10;;;12.90;99.90;;;;;;5001943;28;178438;-65
2022/08/09 03:06:34;;;;;;;11.98;5.80;;;12.90;99.90;;;;;;4994847;28;209731;-65
2022/08/09 03:09:01;;;;;;;12.13;6.40;;;12.90;99.90;;;;;;5020673;28;93074;-65
2022/08/09 03:11:29;;;;;;;12.38;6.50;;;12.90;99.90;;;;;;5013185;28;205720;-65
2022/08/09 03:13:56;;;;;;;11.10;5.90;;;12.90;99.90;;;;;;5035365;28;232735;-65
2022/08/09 03:16:23;;;;;;;12.23;5.68;;;12.90;99.90;;;;;;5007098;28;209706;-65
2022/08/09 03:18:50;;;;;;;10.45;5.43;;;12.90;99.90;;;;;;5035371;28;226210;-64
2022/08/09 03:21:19;;;;;;;14.52;5.90;;;12.80;99.90;;;;;;5007953;28;206683;-65
2022/08/09 03:23:46;;;;;;;10.55;5.47;;;12.80;99.90;;;;;;5059430;28;20048;-64
2022/08/09 03:26:17;;;;;;;10.93;5.50;;;12.80;99.90;;;;;;5008120;28;206714;-64
2022/08/09 03:28:45;;;;;;;;;;;12.80;99.90;;;;;;5037903;28;156908;-64
2022/08/09 03:31:12;;;;;;;10.65;5.20;;;12.80;99.90;;;;;;5023100;28;206175;-65
2022/08/09 03:33:39;;;;;;;9.95;5.35;;;12.70;99.90;;;;;;5033025;28;265625;-65
2022/08/09 03:36:06;;;;;;;10.93;5.18;;;12.70;99.90;;;;;;5003360;28;210310;-65
2022/08/09 03:38:36;;;;;;;9.95;4.65;;;12.70;99.90;;;;;;5032614;28;263919;-65
2022/08/09 03:41:03;;;;;;;13.07;5.10;;;12.70;99.90;;;;;;5009138;28;194047;-65
2022/08/09 03:43:29;;;;;;;9.77;4.50;;;12.70;99.90;;;;;;5048310;28;270507;-65
2022/08/09 03:45:55;;;;;;;10.18;4.03;;;12.60;99.90;;;;;;4990660;28;209373;-65
2022/08/09 03:48:23;;;;;;;9.55;3.83;;;12.60;99.90;;;;;;5047517;28;265154;-65
2022/08/09 03:50:51;;;;;;;8.63;3.83;;;12.60;99.90;;;;;;5001514;28;209913;-65
2022/08/09 03:53:19;;;;;;;8.73;4.00;;;12.50;99.90;;;;;;5049757;28;274364;-65
2022/08/09 03:55:46;;;;;;;8.30;3.78;;;12.50;99.90;;;;;;4999234;28;206464;-65
2022/08/09 03:58:12;;;;;;;8.38;3.30;;;12.50;99.90;;;;;;5049363;28;20048;-65
2022/08/09 04:00:40;;;;;;;8.20;3.30;;;12.50;99.90;;;;;;5010729;28;209450;-65
2022/08/09 04:03:07;;;;;;;7.78;3.00;;;12.50;99.90;;;;;;5048550;28;208035;-64
2022/08/09 04:05:33;;;;;;;8.55;3.25;;;12.50;99.90;;;;;;4999956;28;226606;-64
2022/08/09 04:08:00;;;;;;;7.88;3.45;;;12.50;99.90;;;;;;5041527;28;179849;-65
2022/08/09 04:10:26;;;;;;;9.45;3.53;;;12.40;99.90;;;;;;5032653;28;277199;-64
2022/08/09 04:12:53;;;;;;;8.57;3.53;;;12.40;99.90;;;;;;5024791;28;200403;-64
2022/08/09 04:15:22;;;;;;;8.02;3.38;;;12.40;99.90;;;;;;5039813;28;127958;-64
2022/08/09 04:17:48;;;;;;;9.23;3.10;;;12.40;99.90;;;;;;4999074;28;206833;-65
2022/08/09 04:20:15;;;;;;;7.78;3.30;;;12.40;99.90;;;;;;5044993;28;49276;-65
2022/08/09 04:22:43;;;;;;;11.60;3.85;;;12.40;99.90;;;;;;5029509;28;206123;-65
2022/08/09 04:25:09;;;;;;;10.15;3.30;;;12.40;99.90;;;;;;5044618;28;85519;-65
2022/08/09 04:27:40;;;;;;;8.60;3.10;;;12.40;99.90;;;;;;5014140;28;206030;-65
2022/08/09 04:30:09;;;;;;;10.15;3.92;;;12.40;99.90;;;;;;5059493;28;111417;-65
2022/08/09 04:32:35;;;;;;;7.80;3.25;;;12.40;99.90;;;;;;5031481;28;165865;-65
2022/08/09 04:35:01;;;;;;;7.97;3.40;;;12.40;99.90;;;;;;5038610;28;220544;-65
2022/08/09 04:37:27;;;;;;;8.77;3.53;;;12.40;99.90;;;;;;5016269;28;206514;-65
2022/08/09 04:39:54;;;;;;;8.85;3.00;;;12.40;99.90;;;;;;5056778;28;197148;-65
2022/08/09 04:42:20;;;;;;;7.95;3.25;;;12.40;99.90;;;;;;5023506;28;210679;-65
2022/08/09 04:44:46;;;;;;;7.65;3.00;;;12.40;99.90;;;;;;5021823;28;214438;-65
2022/08/09 04:47:12;;;;;;;8.07;3.20;;;12.50;99.90;;;;;;5012998;28;206306;-64
2022/08/09 04:49:38;;;;;;;7.70;2.90;;;12.50;99.90;;;;;;5043529;28;82585;-64
2022/08/09 04:52:05;;;;;;;7.75;2.90;;;12.50;99.90;;;;;;4990475;28;210103;-64
2022/08/09 04:54:32;;;;;;;8.55;2.83;;;12.50;99.90;;;;;;5038838;28;214847;-65
2022/08/09 04:56:58;;;;;;;7.40;2.75;;;12.50;99.90;;;;;;5011686;28;208260;-65
2022/08/09 04:59:25;;;;;;;7.88;3.03;;;12.60;99.90;;;;;;5056852;28;159060;-65
2022/08/09 05:01:51;;;;;;;7.63;2.88;;;12.60;99.90;;;;;;5010055;28;207269;-65
2022/08/09 05:04:17;;;;;;;7.82;2.92;;;12.60;99.90;;;;;;5026231;28;156262;-64
2022/08/09 05:06:43;;;;;;;8.98;3.35;;;12.70;99.90;;;;;;5008334;28;212715;-65
2022/08/09 05:09:09;;;;;;;7.53;3.03;;;12.70;99.90;;;;;;5040946;28;142814;-65
2022/08/09 05:11:35;;;;;;;9.48;3.72;;;12.80;99.90;;;;;;5007118;28;206330;-64
2022/08/09 05:14:04;;;;;;;9.10;3.80;;;12.80;99.90;;;;;;5037466;28;227557;-65
2022/08/09 05:16:30;;;;;;;8.77;3.15;;;12.90;99.90;;;;;;5005986;28;208260;-65
2022/08/09 05:18:56;;;;;;;8.15;3.40;;;12.90;99.90;;;;;;5044918;28;21075;-64
2022/08/09 05:21:22;;;;;;;8.65;3.38;;;12.90;99.90;;;;;;5026554;28;205897;-65
2022/08/09 05:23:49;;;;;;;8.00;3.20;;;13.00;99.90;;;;;;5052366;28;276797;-64
2022/08/09 05:26:15;;;;;;;8.48;2.75;;;13.00;99.90;;;;;;4998737;28;206215;-65
2022/08/09 05:28:41;;;;;;;8.13;3.15;;;13.10;99.90;;;;;;5018542;28;214622;-65
2022/08/09 05:31:07;;;;;;;7.63;2.80;;;13.10;99.90;;;;;;4996397;28;205858;-65
2022/08/09 05:33:33;;;;;;;7.63;3.08;;;13.20;99.90;;;;;;5051537;28;257582;-65
2022/08/09 05:36:00;;;;;;;7.72;3.17;;;13.20;99.90;;;;;;5005794;28;208258;-65
2022/08/09 05:38:26;;;;;;;9.40;3.60;;;13.30;99.90;;;;;;5033143;28;274049;-64
2022/08/09 05:40:53;;;;;;;6.80;2.57;;;13.40;99.90;;;;;;5003861;28;213764;-65
2022/08/09 05:43:19;;;;;;;7.88;3.40;;;13.50;99.90;;;;;;5049615;28;256546;-64
2022/08/09 05:45:45;;;;;;;10.10;3.92;;;13.50;99.90;;;;;;5013256;28;209025;-65
2022/08/09 05:48:11;;;;;;;13.40;4.47;;;13.60;99.90;;;;;;5068389;28;20048;-65
2022/08/09 05:50:40;;;;;;;8.68;3.95;;;13.70;99.90;;;;;;5007547;28;209830;-64
2022/08/09 05:53:06;;;;;;;9.98;3.63;;;13.80;99.90;;;;;;5008434;28;215873;-65
2022/08/09 05:55:32;;;;;;;9.95;4.25;;;13.90;99.90;;;;;;5042678;28;20059;-65
2022/08/09 05:57:59;;;;;;;12.23;4.40;;;14.00;99.90;;;;;;5007966;28;206609;-65
2022/08/09 06:00:27;;;;;;;9.48;5.00;;;14.10;99.90;;;;;;5040099;28;101519;-65
2022/08/09 06:02:57;;;;;;;10.68;4.80;;;14.20;99.90;;;;;;5008270;28;207961;-65
2022/08/09 06:05:33;;;;;;;12.15;4.70;;;14.30;99.90;;;;;;5011741;28;112289;-65
2022/08/09 06:07:59;;;;;;;12.75;5.47;;;14.40;99.90;;;;;;5007146;28;206658;-65
2022/08/09 06:10:37;;;;;;;11.00;4.95;;;14.50;99.90;;;;;;5037104;28;191826;-65
2022/08/09 06:13:08;;;;;;;11.95;5.70;;;14.60;99.90;;;;;;4980183;28;207801;-65
2022/08/09 06:15:34;;;;;;;12.20;5.40;;;14.80;99.90;;;;;;5040316;28;69473;-65
2022/08/09 06:18:01;;;;;;;14.70;5.78;;;15.00;99.90;;;;;;5013157;28;208550;-65
2022/08/09 06:20:27;;;;;;;10.82;5.40;;;15.30;99.90;;;;;;5037754;28;169526;-65
2022/08/09 06:22:54;;;;;;;9.88;4.85;;;15.80;99.90;;;;;;5004681;28;209320;-65
2022/08/09 06:25:20;;;;;;;10.38;4.50;;;16.20;99.90;;;;;;5035181;28;252542;-63
2022/08/09 06:27:46;;;;;;;10.10;4.65;;;16.60;99.90;;;;;;5005608;28;206310;-63
2022/08/09 06:30:12;;;;;;;11.35;4.95;;;16.90;99.90;;;;;;5042436;28;85308;-64
2022/08/09 06:32:39;;;;;;;9.90;4.90;;;17.30;99.90;;;;;;5012649;28;201915;-65
2022/08/09 06:35:06;;;;;;;9.45;4.60;;;17.70;99.90;;;;;;5038918;28;155702;-65
2022/08/09 06:37:32;;;;;;;9.48;3.95;;;18.00;99.90;;;;;;5014737;28;166117;-64
2022/08/09 06:39:58;;;;;;;9.05;3.80;;;18.30;99.90;;;;;;5055925;28;144528;-65
2022/08/09 06:42:24;;;;;;;9.88;3.75;;;18.50;99.90;;;;;;5006562;28;208260;-64
2022/08/09 06:44:50;;;;;;;10.68;4.28;;;18.80;99.90;;;;;;5034040;28;279739;-65
2022/08/09 06:47:16;;;;;;;9.85;3.80;;;19.00;99.90;;;;;;5026166;28;206949;-65
2022/08/09 06:49:43;;;;;;;10.38;4.00;;;19.20;99.90;;;;;;5042939;28;27172;-67
2022/08/09 06:52:10;;;;;;;10.20;4.10;;;19.50;99.90;;;;;;5003753;28;209893;-66
2022/08/09 06:54:36;;;;;;;10.32;3.80;;;19.70;99.90;;;;;;5041712;28;57329;-66
2022/08/09 06:57:02;;;;;;;8.88;3.70;;;20.00;99.90;;;;;;5012545;28;207098;-66
2022/08/09 06:59:28;;;;;;;9.05;3.60;;;20.20;99.90;;;;;;5042860;28;23001;-66
2022/08/09 07:01:54;;;;;;;9.77;3.67;;;20.50;99.90;;;;;;5009235;28;208997;-65
2022/08/09 07:04:20;;;;;;;9.68;3.50;;;20.70;99.90;;;;;;5023841;28;140610;-65
2022/08/09 07:06:47;;;;;;;9.23;3.30;;;21.00;99.90;;;;;;5010703;28;206313;-67
2022/08/09 07:09:14;;;;;;;9.55;3.30;;;21.20;99.90;;;;;;5053717;28;194909;-66
2022/08/09 07:11:40;;;;;;;9.85;3.20;;;21.40;99.90;;;;;;5022671;28;212943;-66
2022/08/09 07:14:06;;;;;;;8.88;2.92;;;21.50;99.90;;;;;;5039777;28;94991;-66
2022/08/09 07:16:32;;;;;;;9.55;2.63;;;21.80;99.90;;;;;;4994892;28;214478;-66
2022/08/09 07:18:59;;;;;;;8.10;2.53;;;22.00;99.90;;;;;;5041487;28;71754;-66
2022/08/09 07:21:25;;;;;;;9.30;2.40;;;22.20;99.90;;;;;;5006393;28;207015;-66
2022/08/09 07:23:51;;;;;;;8.23;2.35;;;22.40;99.90;;;;;;5038105;28;149231;-67
2022/08/09 07:26:17;;;;;;;7.20;2.00;;;22.60;99.90;;;;;;5011437;28;206765;-66
2022/08/09 07:28:44;;;;;;;8.02;1.90;;;22.70;99.90;;;;;;5056706;28;81825;-67
2022/08/09 07:31:10;;;;;;;6.85;1.75;;;22.80;99.90;;;;;;5021351;28;205294;-67
2022/08/09 07:33:36;;;;;;;8.15;1.70;;;23.00;99.90;;;;;;5049614;28;255044;-67
2022/08/09 07:36:02;;;;;;;5.95;1.40;;;23.10;99.90;;;;;;5007068;28;211585;-67
2022/08/09 07:38:28;;;;;;;6.30;1.40;;;23.20;99.90;;;;;;5031350;28;262703;-66
2022/08/09 07:40:54;;;;;;;6.18;1.25;;;23.50;99.90;;;;;;5001373;28;211163;-66
2022/08/09 07:43:21;;;;;;;6.95;1.38;;;23.70;99.90;;;;;;5030680;28;256421;-67
2022/08/09 07:45:47;;;;;;;4.80;1.07;;;23.70;99.90;;;;;;5000989;28;228142;-67
2022/08/09 07:48:14;;;;;;;5.70;1.10;;;23.70;99.90;;;;;;5049357;28;20049;-67
2022/08/09 07:50:42;;;;;;;5.68;1.08;;;24.00;99.90;;;;;;4996248;28;210097;-66
2022/08/09 07:53:08;;;;;;;5.88;1.23;;;24.20;99.90;;;;;;5049706;28;20048;-66
2022/08/09 07:55:35;;;;;;;5.90;1.10;;;24.40;99.90;;;;;;5034847;28;160773;-66
2022/08/09 07:58:01;;;;;;;6.22;1.08;;;24.60;99.60;;;;;;4973322;28;205995;-66
2022/08/09 08:00:28;;;;;;;4.53;1.00;;;24.80;99.00;;;;;;5021811;28;107572;-64
2022/08/09 08:02:55;;;;;;;3.95;1.00;;;24.80;98.60;;;;;;5001471;28;215469;-66
2022/08/09 08:05:22;;;;;;;5.80;1.02;;;24.90;98.20;;;;;;5037289;28;143920;-67
2022/08/09 08:07:48;;;;;;;5.53;1.08;;;24.90;98.10;;;;;;4986366;28;210681;-67
2022/08/09 08:10:15;;;;;;;5.95;1.00;;;24.70;97.70;;;;;;5058971;28;30218;-67
2022/08/09 08:12:42;;;;;;;5.32;1.30;;;24.70;97.30;;;;;;5005024;28;206553;-66
2022/08/09 08:15:10;;;;;;;6.22;1.20;;;24.60;96.80;;;;;;5064012;28;246863;-66
2022/08/09 08:17:36;;;;;;;5.07;0.93;;;24.70;97.20;;;;;;5010271;28;193287;-67
2022/08/09 08:20:03;;;;;;;4.28;1.00;;;24.60;97.00;;;;;;5035480;28;217431;-66
2022/08/09 08:22:29;;;;;;;5.85;1.02;;;24.50;96.60;;;;;;5021878;28;210453;-66
2022/08/09 08:24:55;;;;;;;6.18;1.27;;;24.20;96.80;;;;;;5024107;28;130076;-66
2022/08/09 08:27:23;;;;;;;4.60;0.90;;;24.10;96.80;;;;;;5000984;28;208989;-66
2022/08/09 08:29:52;;;;;;;4.28;0.98;;;24.00;96.90;;;;;;5041476;28;27982;-67
2022/08/09 08:32:21;;;;;;;4.95;0.90;;;24.00;96.40;;;;;;5018361;28;208500;-67
2022/08/09 08:34:47;;;;;;;4.93;1.00;;;23.70;96.00;;;;;;5053353;28;105848;-66
2022/08/09 08:37:13;;;;;;;5.45;0.93;;;23.50;96.50;;;;;;5005166;28;209669;-67
2022/08/09 08:39:39;;;;;;;4.22;0.85;;;23.60;96.50;;;;;;5035045;28;203835;-66
2022/08/09 08:42:06;;;;;;;5.47;0.95;;;23.70;96.50;;;;;;5014783;28;147003;-66
2022/08/09 08:44:35;;;;;;;4.53;1.00;;;23.70;96.50;;;;;;5036181;28;179859;-66
2022/08/09 08:47:02;;;;;;;5.18;1.20;;;24.20;96.70;;;;;;5003757;28;207887;-67
2022/08/09 08:49:32;;;;;;;4.68;1.00;;;24.60;95.90;;;;;;5034996;28;207091;-67
2022/08/09 08:51:59;;;;;;;4.82;0.80;;;24.90;95.40;;;;;;5004866;28;206566;-67
2022/08/09 08:54:27;;;;;;;6.45;0.90;;;25.10;95.40;;;;;;5054906;28;116541;-68
2022/08/09 08:56:53;;;;;;;6.88;1.00;;;25.40;94.80;;;;;;5015724;28;207382;-68
2022/08/09 08:59:19;;;;;;;5.50;1.20;;;25.40;94.60;;;;;;5036269;28;76260;-65
2022/08/09 09:01:47;;;;;;;4.35;1.00;;;25.70;93.90;;;;;;5003294;28;206638;-67
2022/08/09 09:04:16;;;;;;;5.63;1.10;;;26.20;93.90;;;;;;5037347;28;222068;-66
2022/08/09 09:06:44;;;;;;;5.35;1.20;;;26.60;94.10;;;;;;4994847;28;212874;-66
2022/08/09 09:09:14;;;;;;;4.80;1.08;;;26.20;93.00;;;;;;5027247;28;54035;-67
2022/08/09 09:11:41;;;;;;;5.10;1.05;;;25.80;92.50;;;;;;5004673;28;209865;-67
2022/08/09 09:14:27;;;;;;;5.38;0.90;;;25.40;93.20;;;;;;5022931;28;173935;-67
2022/08/09 09:16:54;;;;;;;3.15;0.80;;;25.10;93.00;;;;;;5008415;28;207846;-67
2022/08/09 09:19:20;;;;;;;4.63;0.80;;;24.90;93.20;;;;;;5065076;28;270811;-68
2022/08/09 09:22:05;;;;;;;3.92;0.88;;;24.90;93.10;;;;;;5027475;28;205697;-68
2022/08/09 09:24:38;;;;;;;3.80;0.80;;;24.70;92.70;;;;;;5028802;28;174477;-68
2022/08/09 09:27:06;;;;;;;6.00;1.00;;;24.50;93.10;;;;;;5004040;28;206364;-68
2022/08/09 09:29:35;;;;;;;2.92;0.77;;;24.80;94.00;;;;;;5017286;28;234672;-68
2022/08/09 09:32:03;;;;;;;4.28;0.85;;;25.30;94.00;;;;;;5014882;28;101751;-68
2022/08/09 09:34:30;;;;;;;5.05;0.70;;;25.90;93.00;;;;;;5037880;28;212590;-68
2022/08/09 09:36:57;;;;;;;3.28;0.80;;;26.20;92.40;;;;;;4993921;28;207624;-68
2022/08/09 09:39:26;;;;;;;5.95;0.90;;;26.20;91.90;;;;;;5030723;28;178113;-68
2022/08/09 09:41:52;;;;;;;4.00;0.90;;;26.40;91.80;;;;;;5013164;28;150118;-68
2022/08/09 09:44:26;;;;;;;2.33;0.70;;;26.60;91.90;;;;;;5059487;28;66327;-67
2022/08/09 09:47:15;;;;;;;5.45;0.90;;;26.90;91.00;;;;;;5010890;28;206595;-69
2022/08/09 09:49:52;;;;;;;2.55;0.70;;;27.10;90.50;;;;;;5036960;28;219833;-68
2022/08/09 09:52:18;;;;;;;3.75;0.80;;;27.40;91.10;;;;;;5009700;28;214789;-67
2022/08/09 09:54:47;;;;;;;4.55;0.80;;;27.70;90.90;;;;;;5022090;28;112070;-67
2022/08/09 09:57:22;;;;;;;6.60;0.70;;;27.80;90.20;;;;;;5004047;28;213173;-67
2022/08/09 09:59:53;;;;;;;3.97;0.70;;;28.20;89.90;;;;;;5038768;28;190849;-67
2022/08/09 10:02:21;;;;;;;3.42;0.88;;;28.40;87.80;;;;;;5007243;28;209816;-67
2022/08/09 10:05:08;;;;;;;5.95;0.70;;;28.30;85.60;;;;;;5038719;28;248936;-67
2022/08/09 10:07:35;;;;;;;3.15;0.60;;;28.40;85.60;;;;;;5012774;28;206336;-67
2022/08/09 10:10:03;;;;;;;2.38;0.60;;;28.80;86.30;;;;;;5041049;28;121528;-67
2022/08/09 10:12:31;;;;;;;1.63;0.63;;;29.20;84.80;;;;;;5007291;28;211595;-67
2022/08/09 10:15:03;;;;;;;2.85;0.75;;;29.60;83.30;;;;;;5037573;28;204291;-68
2022/08/09 10:17:33;;;;;;;3.17;0.73;;;29.90;83.50;;;;;;5014420;28;158670;-68
2022/08/09 10:20:04;;;;;;;2.78;0.70;;;30.30;82.40;;;;;;5054379;28;172408;-68
2022/08/09 10:22:35;;;;;;;5.47;0.80;;;30.50;80.50;;;;;;5003847;28;206799;-67
2022/08/09 10:25:07;;;;;;;4.10;0.70;;;30.90;78.80;;;;;;5055002;28;182636;-68
2022/08/09 10:27:34;;;;;;;4.72;0.85;;;31.00;77.70;;;;;;5012515;28;191848;-68
2022/08/09 10:30:05;;;;;;;4.00;0.60;;;31.20;76.20;;;;;;5054994;28;168490;-68
2022/08/09 10:32:33;;;;;;;5.30;0.80;;;31.30;74.50;;;;;;4991332;28;206851;-68
2022/08/09 10:34:59;;;;;;;3.20;0.60;;;31.40;74.70;;;;;;5041622;28;101935;-68
2022/08/09 10:37:26;;;;;;;4.90;0.80;;;31.50;72.70;;;;;;5006612;28;206285;-69
2022/08/09 10:39:53;;;;;;;3.15;0.60;;;31.60;72.60;;;;;;5044065;28;20052;-68
2022/08/09 10:42:20;;;;;;;4.53;0.70;;;31.70;71.30;;;;;;5026906;28;216028;-68
2022/08/09 10:44:51;;;;;;;2.40;0.50;;;31.70;70.20;;;;;;5034899;28;265354;-67
2022/08/09 10:47:38;;;;;;;4.10;0.60;;;31.90;70.40;;;;;;5031211;28;205748;-67
2022/08/09 10:50:17;;;;;;;4.07;1.00;;;32.30;68.20;;;;;;5038683;28;138687;-67
2022/08/09 10:53:10;;;;;;;2.97;0.60;;;31.90;68.00;;;;;;5003552;28;212085;-68
2022/08/09 10:55:37;;;;;;;3.35;0.60;;;31.70;67.40;;;;;;5012362;28;210852;-68
2022/08/09 10:58:03;;;;;;;3.22;0.70;;;31.60;68.30;;;;;;5024582;28;171470;-68
2022/08/09 11:00:34;;;;;;;2.85;0.70;;;31.80;68.40;;;;;;5032591;28;218763;-68
2022/08/09 11:03:02;;;;;;;2.10;0.60;;;32.20;67.40;;;;;;4982898;28;227496;-68
2022/08/09 11:05:29;;;;;;;2.95;0.70;;;32.20;65.40;;;;;;5036926;28;227403;-68
2022/08/09 11:08:15;;;;;;;2.90;0.60;;;31.40;64.70;;;;;;4981786;28;151983;-68
2022/08/09 11:10:41;;;;;;;2.40;0.60;;;30.60;65.40;;;;;;4984192;28;268986;-68
2022/08/09 11:13:14;;;;;;;2.95;0.70;;;30.50;67.00;;;;;;5049790;28;20421;-68
2022/08/09 11:15:40;;;;;;;3.17;0.55;;;30.90;66.30;;;;;;4998012;28;213713;-68
2022/08/09 11:18:11;;;;;;;3.63;0.70;;;31.00;66.10;;;;;;5046194;28;20045;-68
2022/08/09 11:20:46;;;;;;;2.78;0.70;;;30.50;64.70;;;;;;5017594;28;237573;-68
2022/08/09 11:23:13;;;;;;;2.90;0.70;;;29.80;65.50;;;;;;5023931;28;153203;-68
2022/08/09 11:25:42;;;;;;;5.28;0.80;;;30.00;67.30;;;;;;5009686;28;209288;-69
2022/08/09 11:28:27;;;;;;;3.30;0.70;;;30.50;66.80;;;;;;5032902;28;206063;-69
2022/08/09 11:30:53;;;;;;;3.97;0.70;;;31.30;66.60;;;;;;4981243;28;210849;-68
2022/08/09 11:33:19;;;;;;;3.75;0.70;;;31.80;66.20;;;;;;5030112;28;278574;-69
2022/08/09 11:35:46;;;;;;;3.03;0.60;;;31.50;64.80;;;;;;5010349;28;210986;-69
2022/08/09 11:38:19;;;;;;;2.85;0.60;;;31.90;65.30;;;;;;5049272;28;20044;-69
2022/08/09 11:40:46;;;;;;;5.03;0.63;;;32.20;65.20;;;;;;4972603;28;210571;-69
2022/08/09 11:43:35;;;;;;;3.58;0.60;;;32.50;64.60;;;;;;5048990;28;20441;-69
2022/08/09 11:46:03;;;;;;;3.63;0.60;;;33.00;62.40;;;;;;4985355;28;207240;-69
2022/08/09 11:48:32;;;;;;;1.92;0.50;;;33.00;62.20;;;;;;5015396;28;250861;-69
2022/08/09 11:51:02;;;;;;;2.78;0.60;;;33.10;63.10;;;;;;5001590;28;209991;-69
2022/08/09 11:53:32;;;;;;;4.55;0.63;;;33.20;61.60;;;;;;5031356;28;272727;-69
2022/08/09 11:56:13;;;;;;;3.47;0.60;;;33.30;61.50;;;;;;5008434;28;209812;-69
2022/08/09 11:58:39;;;;;;;4.47;0.68;;;33.60;61.70;;;;;;5033516;28;260167;-68
2022/08/09 12:01:05;;;;;;;3.22;0.70;;;33.60;60.80;;;;;;5026537;28;192229;-69
2022/08/09 12:03:32;;;;;;;2.20;0.70;;;33.60;60.30;;;;;;5017636;28;275529;-69
2022/08/09 12:06:01;;;;;;;5.03;0.70;;;33.60;59.90;;;;;;5001905;28;209924;-69
2022/08/09 12:08:28;;;;;;;4.03;0.70;;;33.60;59.30;;;;;;5047910;28;260710;-69
2022/08/09 12:10:56;;;;;;;2.10;0.50;;;33.50;59.10;;;;;;5001285;28;212556;-68
2022/08/09 12:13:49;;;;;;;3.85;0.65;;;33.50;59.70;;;;;;5030951;28;255336;-69
2022/08/09 12:16:17;;;;;;;4.95;0.63;;;33.00;57.20;;;;;;5008010;28;205897;-69
2022/08/09 12:18:46;;;;;;;4.60;0.80;;;33.10;60.10;;;;;;5041048;28;59273;-69
2022/08/09 12:21:22;;;;;;;4.65;0.80;;;33.50;59.30;;;;;;5030437;28;153320;-69
2022/08/09 12:23:49;;;;;;;2.90;0.70;;;33.70;59.00;;;;;;5037519;28;154152;-68
2022/08/09 12:26:16;;;;;;;3.70;0.70;;;33.80;58.70;;;;;;5014133;28;191730;-69
2022/08/09 12:28:50;;;;;;;4.32;0.70;;;33.70;57.50;;;;;;5014187;28;253665;-68
2022/08/09 12:31:17;;;;;;;3.05;0.60;;;32.70;57.90;;;;;;4994592;28;206852;-68
2022/08/09 12:33:43;;;;;;;4.03;0.70;;;32.30;58.60;;;;;;5043630;28;251764;-68
2022/08/09 12:36:10;;;;;;;3.95;0.60;;;32.30;59.80;;;;;;5012222;28;206726;-69
2022/08/09 12:38:36;;;;;;;2.45;0.70;;;32.70;59.60;;;;;;5052352;28;262825;-69
2022/08/09 12:41:02;;;;;;;4.40;0.65;;;32.40;59.40;;;;;;5034398;28;173617;-69
2022/08/09 12:43:29;;;;;;;3.05;0.70;;;32.70;58.80;;;;;;5034719;28;266117;-69
2022/08/09 12:45:57;;;;;;;1.95;0.68;;;32.90;58.60;;;;;;4995574;28;212429;-69
2022/08/09 12:48:25;;;;;;;2.73;0.70;;;33.10;59.30;;;;;;5034094;28;271092;-69